Time;durP1;ratioP1;P1;durP2;ratioP2;P2;SDS_P1;SDS_P2;PMS_P1;PMS_P2;Temp;Humidity;BMP_temperature;BMP_pressure;BME280_temperature;BME280_humidity;BME280_pressure;Samples;Min_cycle;Max_cycle;Signal;HPM_P1;HPM_P2
2023/02/08 00:00:28;;;;;;;;;;;-2.30;99.90;;;;;;5072620;28;20035;-69
2023/02/08 00:02:55;;;;;;;;;;;-2.30;99.90;;;;;;5071861;28;19943;-70
2023/02/08 00:05:21;;;;;;;;;;;-2.30;99.90;;;;;;5073465;28;20018;-70
2023/02/08 00:07:49;;;;;;;;;;;-2.30;99.90;;;;;;5055830;28;19925;-69
2023/02/08 00:10:16;;;;;;;;;;;-2.30;99.90;;;;;;5074401;28;19931;-69
2023/02/08 00:12:43;;;;;;;;;;;-2.30;99.90;;;;;;5065666;28;20027;-69
2023/02/08 00:15:09;;;;;;;;;;;-2.40;99.90;;;;;;5073533;28;19931;-69
2023/02/08 00:17:36;;;;;;;;;;;-2.40;99.90;;;;;;5070954;28;19925;-70
2023/02/08 00:20:03;;;;;;;;;;;-2.50;99.90;;;;;;5068293;28;20383;-70
2023/02/08 00:22:30;;;;;;;;;;;-2.60;99.90;;;;;;5056366;28;19929;-69
2023/02/08 00:24:58;;;;;;;;;;;-2.60;99.90;;;;;;5068603;28;19924;-69
2023/02/08 00:27:24;;;;;;;;;;;-2.60;99.90;;;;;;5073197;28;19924;-69
2023/02/08 00:29:51;;;;;;;;;;;-2.60;99.90;;;;;;5070932;28;19931;-70
2023/02/08 00:32:17;;;;;;;;;;;-2.70;99.90;;;;;;5072374;28;20392;-69
2023/02/08 00:34:44;;;;;;;;;;;-2.70;99.90;;;;;;5064147;28;20368;-69
2023/02/08 00:37:11;;;;;;;;;;;-2.70;99.90;;;;;;5072982;28;20407;-69
2023/02/08 00:39:37;;;;;;;;;;;-2.70;99.90;;;;;;5071768;28;20458;-69
2023/02/08 00:42:05;;;;;;;;;;;-2.70;99.90;;;;;;5071209;28;19924;-69
2023/02/08 00:44:32;;;;;;;;;;;-2.70;99.90;;;;;;5069588;28;20278;-69
2023/02/08 00:46:59;;;;;;;;;;;-2.80;99.90;;;;;;5066917;28;20470;-69
2023/02/08 00:49:25;;;;;;;;;;;-2.80;99.90;;;;;;5067888;28;20379;-70
2023/02/08 00:51:52;;;;;;;;;;;-2.80;99.90;;;;;;5072750;28;20027;-69
2023/02/08 00:54:19;;;;;;;;;;;-2.70;99.90;;;;;;5068761;28;19924;-69
2023/02/08 00:56:46;;;;;;;;;;;-2.60;99.90;;;;;;5072624;28;19929;-69
2023/02/08 00:59:14;;;;;;;;;;;-2.60;99.90;;;;;;5071975;28;19931;-69
2023/02/08 01:01:41;;;;;;;;;;;-2.70;99.90;;;;;;5071000;28;19924;-69
2023/02/08 01:04:08;;;;;;;;;;;-2.70;99.90;;;;;;5069987;28;19935;-69
2023/02/08 01:06:34;;;;;;;;;;;-2.80;99.90;;;;;;5071898;28;20474;-69
2023/02/08 01:09:01;;;;;;;;;;;-2.80;99.90;;;;;;5068447;28;20364;-69
2023/02/08 01:11:28;;;;;;;;;;;-2.80;99.90;;;;;;5055876;28;19940;-69
2023/02/08 01:13:56;;;;;;;;;;;-2.80;99.90;;;;;;5063069;28;19928;-69
2023/02/08 01:16:25;;;;;;;;;;;-2.80;99.90;;;;;;5070841;28;19925;-69
2023/02/08 01:18:52;;;;;;;;;;;-2.80;99.90;;;;;;5062124;28;20372;-69
2023/02/08 01:21:20;;;;;;;;;;;-2.70;99.90;;;;;;5061875;28;19924;-69
2023/02/08 01:23:46;;;;;;;;;;;-2.70;99.90;;;;;;5069247;28;20406;-69
2023/02/08 01:26:14;;;;;;;;;;;-2.70;99.90;;;;;;5065964;28;19924;-69
2023/02/08 01:28:41;;;;;;;;;;;-2.80;99.90;;;;;;5071308;28;20367;-69
2023/02/08 01:31:08;;;;;;;;;;;-2.80;99.90;;;;;;5071388;28;20023;-70
2023/02/08 01:33:37;;;;;;;;;;;-2.80;99.90;;;;;;5070812;28;19931;-69
2023/02/08 01:36:04;;;;;;;;;;;-2.80;99.90;;;;;;5071706;28;20023;-69
2023/02/08 01:38:31;;;;;;;;;;;-2.90;99.90;;;;;;5070384;28;20474;-69
2023/02/08 01:40:57;;;;;;;;;;;-2.90;99.90;;;;;;5069439;28;20299;-69
2023/02/08 01:43:25;;;;;;;;;;;-2.80;99.90;;;;;;5070999;28;20019;-69
2023/02/08 01:45:52;;;;;;;;;;;-2.80;99.90;;;;;;5070758;28;19924;-69
2023/02/08 01:48:20;;;;;;;;;;;-2.80;99.90;;;;;;5069695;28;19932;-69
2023/02/08 01:50:53;;;;;;;;;;;-2.90;99.90;;;;;;5069330;28;20287;-70
2023/02/08 01:53:20;;;;;;;;;;;-2.90;99.90;;;;;;5069289;28;20023;-71
2023/02/08 01:55:48;;;;;;;;;;;-2.90;99.90;;;;;;5069986;28;19967;-69
2023/02/08 01:58:17;;;;;;;;;;;-3.00;99.90;;;;;;5053126;28;19925;-69
2023/02/08 02:00:44;;;;;;;;;;;-2.90;99.90;;;;;;5070462;28;19925;-70
2023/02/08 02:03:10;;;;;;;;;;;-2.90;99.90;;;;;;5065006;28;20024;-70
2023/02/08 02:05:39;;;;;;;;;;;-2.90;99.90;;;;;;5068810;28;19924;-69
2023/02/08 02:08:07;;;;;;;;;;;-2.90;99.90;;;;;;5055226;28;20407;-70
2023/02/08 02:10:35;;;;;;;;;;;-2.90;99.90;;;;;;5070754;28;19930;-70
2023/02/08 02:13:03;;;;;;;;;;;-2.90;99.90;;;;;;5069188;28;19971;-70
2023/02/08 02:15:30;;;;;;;;;;;-2.90;99.90;;;;;;5070139;28;19931;-70
2023/02/08 02:17:57;;;;;;;;;;;-2.90;99.90;;;;;;5067615;28;19986;-70
2023/02/08 02:20:26;;;;;;;;;;;-2.90;99.90;;;;;;5051726;28;19925;-70
2023/02/08 02:23:12;;;;;;;;;;;-2.90;99.90;;;;;;5064575;28;19929;-70
2023/02/08 02:25:51;;;;;;;;;;;-2.90;99.90;;;;;;5066935;28;19928;-69
2023/02/08 02:28:28;;;;;;;;;;;-2.90;99.90;;;;;;5068577;28;19930;-69
2023/02/08 02:31:07;;;;;;;;;;;-2.90;99.90;;;;;;5071165;28;19931;-69
2023/02/08 02:33:41;;;;;;;;;;;-2.90;99.90;;;;;;5068852;28;19925;-70
2023/02/08 02:36:14;;;;;;;;;;;-2.90;99.90;;;;;;5069988;28;19978;-70
2023/02/08 02:38:44;;;;;;;;;;;-2.90;99.90;;;;;;5070058;28;19970;-70
2023/02/08 02:43:40;;;;;;;;;;;-2.80;99.90;;;;;;5068641;28;19960;-70
2023/02/08 02:44:06;;;;;;;;;;;-2.80;99.90;;;;;;5060151;28;20073;-70
2023/02/08 02:46:39;;;;;;;;;;;-2.80;99.90;;;;;;5069751;28;19960;-71
2023/02/08 02:49:12;;;;;;;;;;;-2.90;99.90;;;;;;5067336;28;20079;-70
2023/02/08 02:51:40;;;;;;;;;;;-3.00;99.90;;;;;;5070415;28;19929;-70
2023/02/08 02:54:08;;;;;;;;;;;-3.00;99.90;;;;;;5067650;28;20046;-70
2023/02/08 02:56:36;;;;;;;;;;;-3.00;99.90;;;;;;5069729;28;20023;-69
2023/02/08 02:59:05;;;;;;;;;;;-3.00;99.90;;;;;;5059100;28;20020;-70
2023/02/08 03:01:31;;;;;;;;;;;-3.00;99.90;;;;;;5066066;28;19978;-70
2023/02/08 03:03:58;;;;;;;;;;;-2.90;99.90;;;;;;5068890;28;20010;-70
2023/02/08 03:06:34;;;;;;;;;;;-2.90;99.90;;;;;;5069936;28;20389;-70
2023/02/08 03:09:08;;;;;;;;;;;-2.90;99.90;;;;;;5066493;28;20302;-70
2023/02/08 03:11:36;;;;;;;;;;;-2.90;99.90;;;;;;5073211;28;19925;-70
2023/02/08 03:14:11;;;;;;;;;;;-2.90;99.90;;;;;;5072769;28;19929;-70
2023/02/08 03:16:47;;;;;;;;;;;-2.90;99.90;;;;;;5074196;28;19935;-70
2023/02/08 03:19:19;;;;;;;;;;;-3.00;99.90;;;;;;5064568;28;19928;-70
2023/02/08 03:21:51;;;;;;;;;;;-3.00;99.90;;;;;;5071298;28;20391;-70
2023/02/08 03:24:24;;;;;;;;;;;-3.10;99.90;;;;;;5071733;28;19924;-70
2023/02/08 03:26:54;;;;;;;;;;;-3.10;99.90;;;;;;5063667;28;19931;-70
2023/02/08 03:29:25;;;;;;;;;;;-3.20;99.90;;;;;;5067211;28;20387;-70
2023/02/08 03:31:55;;;;;;;;;;;-3.20;99.90;;;;;;5073486;28;20022;-70
2023/02/08 03:34:23;;;;;;;;;;;-3.20;99.90;;;;;;5063171;28;19931;-70
2023/02/08 03:36:53;;;;;;;;;;;-3.30;99.90;;;;;;5072798;28;19932;-70
2023/02/08 03:39:22;;;;;;;;;;;-3.30;99.90;;;;;;5071527;28;20016;-69
2023/02/08 03:41:51;;;;;;;;;;;-3.20;99.90;;;;;;5071812;28;20379;-69
2023/02/08 03:44:20;;;;;;;;;;;-3.30;99.90;;;;;;5071543;28;20355;-69
2023/02/08 03:46:48;;;;;;;;;;;-3.30;99.90;;;;;;5070524;28;19931;-70
2023/02/08 03:49:16;;;;;;;;;;;-3.30;99.90;;;;;;5060253;28;19964;-69
2023/02/08 03:51:44;;;;;;;;;;;-3.30;99.90;;;;;;5073464;28;20023;-70
2023/02/08 03:54:13;;;;;;;;;;;-3.30;99.90;;;;;;5070938;28;19924;-70
2023/02/08 03:56:43;;;;;;;;;;;-3.40;99.90;;;;;;5069380;28;20602;-69
2023/02/08 03:59:11;;;;;;;;;;;-3.40;99.90;;;;;;5070925;28;20015;-69
2023/02/08 04:01:41;;;;;;;;;;;-3.40;99.90;;;;;;5073312;28;19929;-69
2023/02/08 04:04:08;;;;;;;;;;;-3.50;99.90;;;;;;5068740;28;19924;-69
2023/02/08 04:06:34;;;;;;;;;;;-3.50;99.90;;;;;;5073774;28;19925;-70
2023/02/08 04:09:01;;;;;;;;;;;-3.50;99.90;;;;;;5070230;28;20299;-69
2023/02/08 04:11:29;;;;;;;;;;;-3.50;99.90;;;;;;5069655;28;19924;-70
2023/02/08 04:13:55;;;;;;;;;;;-3.50;99.90;;;;;;5066561;28;19925;-68
2023/02/08 04:16:22;;;;;;;;;;;-3.50;99.90;;;;;;5072354;28;19925;-68
2023/02/08 04:18:49;;;;;;;;;;;-3.50;99.90;;;;;;5062988;28;19968;-68
2023/02/08 04:21:15;;;;;;;;;;;-3.40;99.90;;;;;;5068643;28;20019;-69
2023/02/08 04:23:42;;;;;;;;;;;-3.40;99.90;;;;;;5064200;28;20015;-69
2023/02/08 04:26:09;;;;;;;;;;;-3.50;99.90;;;;;;5066769;28;20019;-69
2023/02/08 04:28:37;;;;;;;;;;;-3.50;99.90;;;;;;5064253;28;19929;-69
2023/02/08 04:31:04;;;;;;;;;;;-3.60;99.90;;;;;;5065394;28;20019;-69
2023/02/08 04:33:30;;;;;;;;;;;-3.60;99.90;;;;;;5063638;28;19924;-69
2023/02/08 04:35:57;;;;;;;;;;;-3.60;99.90;;;;;;5068952;28;19924;-68
2023/02/08 04:38:24;;;;;;;;;;;-3.60;99.90;;;;;;5066269;28;20291;-69
2023/02/08 04:40:50;;;;;;;;;;;-3.60;99.90;;;;;;5067460;28;20473;-69
2023/02/08 04:43:17;;;;;;;;;;;-3.60;99.90;;;;;;5071501;28;20034;-71
2023/02/08 04:45:45;;;;;;;;;;;-3.50;99.90;;;;;;5061312;28;19994;-69
2023/02/08 04:48:12;;;;;;;;;;;-3.50;99.90;;;;;;5066274;28;20438;-69
2023/02/08 04:50:38;;;;;;;;;;;-3.40;99.90;;;;;;5070384;28;20009;-68
2023/02/08 04:53:05;;;;;;;;;;;-3.40;99.90;;;;;;5070709;28;20384;-69
2023/02/08 04:55:32;;;;;;;;;;;-3.50;99.90;;;;;;5072902;28;19925;-69
2023/02/08 04:57:58;;;;;;;;;;;-3.40;99.90;;;;;;5069723;28;19929;-69
2023/02/08 05:00:25;;;;;;;;;;;-3.40;99.90;;;;;;5071520;28;19931;-69
2023/02/08 05:02:54;;;;;;;;;;;-3.40;99.90;;;;;;5069062;28;20028;-68
2023/02/08 05:05:21;;;;;;;;;;;-3.40;99.90;;;;;;5070865;28;20015;-68
2023/02/08 05:07:47;;;;;;;;;;;-3.50;99.90;;;;;;5069087;28;19924;-68
2023/02/08 05:10:14;;;;;;;;;;;-3.50;99.90;;;;;;5071303;28;19928;-69
2023/02/08 05:12:41;;;;;;;;;;;-3.50;99.90;;;;;;5069120;28;19970;-69
2023/02/08 05:15:08;;;;;;;;;;;-3.50;99.90;;;;;;5071256;28;20397;-70
2023/02/08 05:17:35;;;;;;;;;;;-3.50;99.90;;;;;;5069905;28;19924;-70
2023/02/08 05:20:03;;;;;;;;;;;-3.50;99.90;;;;;;5071295;28;19974;-70
2023/02/08 05:22:31;;;;;;;;;;;-3.60;99.90;;;;;;5071734;28;20015;-69
2023/02/08 05:24:57;;;;;;;;;;;-3.60;99.90;;;;;;5070280;28;20459;-70
2023/02/08 05:27:24;;;;;;;;;;;-3.70;99.90;;;;;;5065362;28;20292;-70
2023/02/08 05:29:51;;;;;;;;;;;-3.70;99.90;;;;;;5065312;28;20381;-69
2023/02/08 05:32:17;;;;;;;;;;;-3.70;99.90;;;;;;5067118;28;20406;-69
2023/02/08 05:34:44;;;;;;;;;;;-3.60;99.90;;;;;;5056528;28;20007;-69
2023/02/08 05:37:12;;;;;;;;;;;-3.60;99.90;;;;;;5069353;28;19951;-64
2023/02/08 05:39:39;;;;;;;;;;;-3.60;99.90;;;;;;5056325;28;19959;-68
2023/02/08 05:42:06;;;;;;;;;;;-3.60;99.90;;;;;;5070839;28;20383;-67
2023/02/08 05:44:33;;;;;;;;;;;-3.50;99.90;;;;;;5068628;28;19978;-69
2023/02/08 05:47:00;;;;;;;;;;;-3.50;99.90;;;;;;5051671;28;19983;-68
2023/02/08 05:49:27;;;;;;;;;;;-3.40;99.90;;;;;;5070272;28;20020;-68
2023/02/08 05:51:54;;;;;;;;;;;-3.50;99.90;;;;;;5071689;28;19947;-67
2023/02/08 05:54:22;;;;;;;;;;;-3.50;99.90;;;;;;5068393;28;19947;-68
2023/02/08 05:56:48;;;;;;;;;;;-3.40;99.90;;;;;;5069177;28;19931;-68
2023/02/08 05:59:15;;;;;;;;;;;-3.40;99.90;;;;;;5068444;28;19930;-68
2023/02/08 06:01:42;;;;;;;;;;;-3.40;99.90;;;;;;5071443;28;19924;-68
2023/02/08 06:04:08;;;;;;;;;;;-3.40;99.90;;;;;;5066708;28;19999;-68
2023/02/08 06:06:35;;;;;;;;;;;-3.40;99.90;;;;;;5062063;28;20023;-70
2023/02/08 06:09:01;;;;;;;;;;;-3.40;99.90;;;;;;5067303;28;20401;-69
2023/02/08 06:11:29;;;;;;;;;;;-3.40;99.90;;;;;;5068746;28;19925;-71
2023/02/08 06:13:56;;;;;;;;;;;-3.30;99.90;;;;;;5064615;28;20294;-71
2023/02/08 06:16:23;;;;;;;;;;;-3.30;99.90;;;;;;5069813;28;20416;-71
2023/02/08 06:18:49;;;;;;;;;;;-3.40;99.90;;;;;;5068988;28;19960;-70
2023/02/08 06:21:16;;;;;;;;;;;-3.40;99.90;;;;;;5071110;28;19931;-71
2023/02/08 06:23:43;;;;;;;;;;;-3.40;99.90;;;;;;5068593;28;20035;-71
2023/02/08 06:26:10;;;;;;;;;;;-3.50;99.90;;;;;;5065850;28;19970;-71
2023/02/08 06:28:38;;;;;;;;;;;-3.40;99.90;;;;;;5065305;28;20015;-70
2023/02/08 06:31:05;;;;;;;;;;;-3.40;99.90;;;;;;5068793;28;19938;-70
2023/02/08 06:33:31;;;;;;;;;;;-3.40;99.90;;;;;;5065361;28;20007;-71
2023/02/08 06:35:58;;;;;;;;;;;-3.50;99.90;;;;;;5064073;28;19989;-70
2023/02/08 06:38:26;;;;;;;;;;;-3.50;99.90;;;;;;5064423;28;19924;-70
2023/02/08 06:40:53;;;;;;;;;;;-3.50;99.90;;;;;;5069683;28;19946;-70
2023/02/08 06:43:19;;;;;;;;;;;-3.50;99.90;;;;;;5070095;28;19946;-70
2023/02/08 06:45:47;;;;;;;;;;;-3.60;99.90;;;;;;5075276;28;19983;-71
2023/02/08 06:48:14;;;;;;;;;;;-3.60;99.90;;;;;;5072551;28;20379;-72
2023/02/08 06:50:41;;;;;;;;;;;-3.50;99.90;;;;;;5059817;28;20277;-72
2023/02/08 06:53:08;;;;;;;;;;;-3.50;99.90;;;;;;5071426;28;20017;-72
2023/02/08 06:55:35;;;;;;;;;;;-3.50;99.90;;;;;;5072917;28;19971;-70
2023/02/08 06:58:01;;;;;;;;;;;-3.50;99.90;;;;;;5068901;28;20388;-71
2023/02/08 07:00:28;;;;;;;;;;;-3.50;99.90;;;;;;5074829;28;19956;-71
2023/02/08 07:02:56;;;;;;;;;;;-3.50;99.90;;;;;;5076227;28;19924;-70
2023/02/08 07:05:23;;;;;;;;;;;-3.50;99.90;;;;;;5072265;28;20393;-70
2023/02/08 07:07:50;;;;;;;;;;;-3.60;99.90;;;;;;5063986;28;19924;-71
2023/02/08 07:10:16;;;;;;;;;;;-3.60;99.90;;;;;;5064354;28;20014;-71
2023/02/08 07:12:43;;;;;;;;;;;-3.60;99.90;;;;;;5069834;28;19972;-71
2023/02/08 07:15:12;;;;;;;;;;;-3.50;99.90;;;;;;5064081;28;20340;-71
2023/02/08 07:17:38;;;;;;;;;;;-3.50;99.90;;;;;;5070214;28;19947;-71
2023/02/08 07:20:11;;;;;;;;;;;-3.40;99.90;;;;;;5072672;28;19925;-72
2023/02/08 07:22:38;;;;;;;;;;;-3.40;99.90;;;;;;5073828;28;19932;-72
2023/02/08 07:25:06;;;;;;;;;;;-3.40;99.90;;;;;;5070493;28;20015;-72
2023/02/08 07:27:33;;;;;;;;;;;-3.30;99.90;;;;;;5069473;28;19925;-71
2023/02/08 07:29:59;;;;;;;;;;;-3.30;99.90;;;;;;5074488;28;19928;-72
2023/02/08 07:32:26;;;;;;;;;;;-3.30;99.90;;;;;;5070379;28;19928;-72
2023/02/08 07:34:53;;;;;;;;;;;-3.30;99.90;;;;;;5070914;28;19925;-71
2023/02/08 07:37:21;;;;;;;;;;;-3.30;99.90;;;;;;5072042;28;19924;-71
2023/02/08 07:39:48;;;;;;;;;;;-3.20;99.90;;;;;;5075054;28;19924;-73
2023/02/08 07:42:14;;;;;;;;;;;-3.20;99.90;;;;;;5057710;28;20447;-72
2023/02/08 07:44:41;;;;;;;;;;;-3.20;99.90;;;;;;5069458;28;19928;-72
2023/02/08 07:47:08;;;;;;;;;;;-3.10;99.90;;;;;;5065978;28;19924;-69
2023/02/08 07:49:34;;;;;;;;;;;-3.10;99.90;;;;;;5076605;28;19938;-71
2023/02/08 07:52:01;;;;;;;;;;;-3.00;99.90;;;;;;5072861;28;20031;-71
2023/02/08 07:54:29;;;;;;;;;;;-3.00;99.90;;;;;;5071430;28;20011;-69
2023/02/08 07:56:59;;;;;;;;;;;-2.90;99.90;;;;;;5068470;28;19967;-72
2023/02/08 07:59:26;;;;;;;;;;;-2.80;99.90;;;;;;5066683;28;19925;-70
2023/02/08 08:01:53;;;;;;;;;;;-2.80;99.90;;;;;;5068382;28;19925;-70
2023/02/08 08:04:20;;;;;;;;;;;-2.70;99.90;;;;;;5059893;28;19931;-72
2023/02/08 08:06:48;;;;;;;;;;;-2.60;99.90;;;;;;5067102;28;19929;-74
2023/02/08 08:09:15;;;;;;;;;;;-2.50;99.90;;;;;;5069206;28;20007;-73
2023/02/08 08:11:43;;;;;;;;;;;-2.30;99.90;;;;;;5067570;28;19947;-72
2023/02/08 08:14:10;;;;;;;;;;;-2.20;99.90;;;;;;5067862;28;19932;-71
2023/02/08 08:16:37;;;;;;;;;;;-2.10;99.90;;;;;;5069899;28;19979;-71
2023/02/08 08:19:03;;;;;;;;;;;-2.10;99.90;;;;;;5067401;28;20019;-70
2023/02/08 08:21:30;;;;;;;;;;;-2.00;99.90;;;;;;5070723;28;19924;-70
2023/02/08 08:23:57;;;;;;;;;;;-1.90;99.90;;;;;;5070920;28;20427;-71
2023/02/08 08:26:23;;;;;;;;;;;-1.80;99.90;;;;;;5076735;28;19955;-71
2023/02/08 08:28:51;;;;;;;;;;;-1.70;99.90;;;;;;5073449;28;19924;-71
2023/02/08 08:31:19;;;;;;;;;;;-1.20;99.90;;;;;;5060009;28;19925;-71
2023/02/08 08:33:46;;;;;;;;;;;1.50;99.90;;;;;;5065607;28;20340;-71
2023/02/08 08:36:13;;;;;;;;;;;3.80;99.90;;;;;;5072454;28;19968;-71
2023/02/08 08:38:40;;;;;;;;;;;5.50;99.90;;;;;;5077850;28;19928;-71
2023/02/08 08:41:08;;;;;;;;;;;6.70;99.90;;;;;;5062926;28;19924;-72
2023/02/08 08:43:34;;;;;;;;;;;7.90;99.20;;;;;;5070776;28;20003;-72
2023/02/08 08:46:04;;;;;;;;;;;9.00;90.40;;;;;;5069248;28;20350;-71
2023/02/08 08:48:31;;;;;;;;;;;9.30;72.00;;;;;;5059371;28;19931;-72
2023/02/08 08:50:58;;;;;;;;;;;9.80;64.50;;;;;;5059324;28;19968;-72
2023/02/08 08:53:24;;;;;;;;;;;10.20;53.80;;;;;;5070970;28;20014;-72
2023/02/08 08:55:51;;;;;;;;;;;9.90;50.50;;;;;;5077683;28;19940;-72
2023/02/08 08:58:18;;;;;;;;;;;10.10;47.00;;;;;;5064858;28;19986;-73
2023/02/08 09:00:45;;;;;;;;;;;10.40;45.70;;;;;;5075064;28;19924;-73
2023/02/08 09:03:13;;;;;;;;;;;10.90;43.20;;;;;;5068483;28;19932;-74
2023/02/08 09:05:39;;;;;;;;;;;10.80;39.30;;;;;;5066754;28;19939;-72
2023/02/08 09:08:06;;;;;;;;;;;10.80;40.10;;;;;;5070792;28;19933;-72
2023/02/08 09:10:33;;;;;;;;;;;11.30;36.00;;;;;;5067789;28;20019;-71
2023/02/08 09:13:00;;;;;;;;;;;11.50;34.70;;;;;;5058912;28;20050;-70
2023/02/08 09:15:26;;;;;;;;;;;11.80;32.90;;;;;;5067410;28;19967;-72
2023/02/08 09:17:53;;;;;;;;;;;11.70;30.70;;;;;;5061224;28;20014;-74
2023/02/08 09:20:22;;;;;;;;;;;11.70;31.20;;;;;;5064700;28;19936;-71
2023/02/08 09:22:49;;;;;;;;;;;11.90;29.50;;;;;;5070702;28;19925;-75
2023/02/08 09:25:16;;;;;;;;;;;12.10;29.00;;;;;;5072664;28;20034;-73
2023/02/08 09:27:43;;;;;;;;;;;12.00;27.40;;;;;;5069181;28;19960;-73
2023/02/08 09:30:10;;;;;;;;;;;12.20;28.00;;;;;;5070373;28;19968;-73
2023/02/08 09:32:38;;;;;;;;;;;12.20;26.60;;;;;;5067846;28;19930;-73
2023/02/08 09:35:05;;;;;;;;;;;11.20;27.00;;;;;;5068070;28;19931;-75
2023/02/08 09:37:34;;;;;;;;;;;12.00;27.90;;;;;;5067593;28;19924;-73
2023/02/08 09:40:00;;;;;;;;;;;12.60;26.50;;;;;;5065799;28;19986;-75
2023/02/08 09:42:30;;;;;;;;;;;12.40;25.50;;;;;;5069142;28;19935;-72
2023/02/08 09:45:15;;;;;;;;;;;11.20;24.80;;;;;;5068645;28;19924;-72
2023/02/08 09:47:43;;;;;;;;;;;9.00;27.40;;;;;;5069573;28;20462;-69
2023/02/08 09:50:13;;;;;;;;;;;7.20;29.60;;;;;;5078279;28;19924;-69
2023/02/08 09:52:44;;;;;;;;;;;5.90;33.70;;;;;;5068801;28;20008;-71
2023/02/08 09:55:17;;;;;;;;;;;5.10;36.00;;;;;;5070949;28;19954;-72
2023/02/08 09:57:44;;;;;;;;;;;4.40;39.30;;;;;;5070077;28;19950;-70
2023/02/08 10:00:14;;;;;;;;;;;3.80;39.60;;;;;;5069500;28;19960;-72
2023/02/08 10:02:43;;;;;;;;;;;3.80;42.60;;;;;;5062621;28;20019;-71
2023/02/08 10:05:11;;;;;;;;;;;3.70;44.20;;;;;;5065374;28;19924;-71
2023/02/08 10:07:39;;;;;;;;;;;3.50;46.10;;;;;;5053326;28;20019;-71
2023/02/08 10:10:11;;;;;;;;;;;3.50;49.20;;;;;;5066787;28;19942;-71
2023/02/08 10:12:42;;;;;;;;;;;3.50;49.90;;;;;;5066419;28;19925;-71
2023/02/08 10:15:12;;;;;;;;;;;3.40;50.60;;;;;;5074462;28;19924;-71
2023/02/08 10:17:47;;;;;;;;;;;3.50;51.80;;;;;;5069363;28;19924;-71
2023/02/08 10:20:19;;;;;;;;;;;3.60;52.10;;;;;;5066518;28;19932;-70
2023/02/08 10:22:50;;;;;;;;;;;3.60;49.70;;;;;;5069504;28;20014;-71
2023/02/08 10:25:27;;;;;;;;;;;3.70;48.30;;;;;;5063958;28;19929;-71
2023/02/08 10:28:01;;;;;;;;;;;3.80;49.20;;;;;;5063387;28;20382;-71
2023/02/08 10:30:32;;;;;;;;;;;3.90;47.60;;;;;;5061189;28;21005;-71
2023/02/08 10:33:00;;;;;;;;;;;4.00;46.00;;;;;;5068378;28;19978;-70
2023/02/08 10:35:30;;;;;;;;;;;4.00;44.50;;;;;;5080435;28;20384;-70
2023/02/08 10:37:58;;;;;;;;;;;4.00;43.70;;;;;;5070607;28;20020;-71
2023/02/08 10:40:37;;;;;;;;;;;4.10;42.50;;;;;;5067759;28;20453;-72
2023/02/08 10:43:16;;;;;;;;;;;4.20;42.70;;;;;;5070552;28;20390;-70
2023/02/08 10:45:45;;;;;;;;;;;4.30;40.60;;;;;;5083423;28;19924;-71
2023/02/08 10:48:15;;;;;;;;;;;4.50;40.90;;;;;;5074572;28;19976;-71
2023/02/08 10:50:46;;;;;;;;;;;4.60;38.60;;;;;;5064630;28;19967;-71
2023/02/08 10:53:14;;;;;;;;;;;4.70;37.80;;;;;;5069795;28;19932;-70
2023/02/08 10:55:43;;;;;;;;;;;4.70;37.60;;;;;;5069292;28;19929;-70
2023/02/08 10:58:13;;;;;;;;;;;4.80;39.00;;;;;;5069592;28;20279;-71
2023/02/08 11:00:40;;;;;;;;;;;4.60;41.70;;;;;;5067753;28;19925;-71
2023/02/08 11:03:14;;;;;;;;;;;4.70;40.30;;;;;;5068416;28;19924;-70
2023/02/08 11:05:41;;;;;;;;;;;4.60;40.50;;;;;;5069668;28;20404;-71
2023/02/08 11:08:09;;;;;;;;;;;4.60;40.70;;;;;;5073908;28;19978;-71
2023/02/08 11:10:37;;;;;;;;;;;4.70;41.40;;;;;;5069525;28;19928;-70
2023/02/08 11:13:07;;;;;;;;;;;4.70;40.40;;;;;;5070853;28;20025;-71
2023/02/08 11:15:38;;;;;;;;;;;4.80;42.70;;;;;;5069563;28;19986;-71
2023/02/08 11:18:06;;;;;;;;;;;4.80;45.80;;;;;;5069178;28;20025;-71
2023/02/08 11:20:35;;;;;;;;;;;4.80;45.70;;;;;;5067856;28;19932;-71
2023/02/08 11:23:02;;;;;;;;;;;4.90;45.50;;;;;;5067027;28;20019;-72
2023/02/08 11:25:37;;;;;;;;;;;5.00;43.40;;;;;;5068022;28;20335;-71
2023/02/08 11:28:21;;;;;;;;;;;5.10;43.10;;;;;;5068505;28;20038;-70
2023/02/08 11:30:54;;;;;;;;;;;5.20;44.20;;;;;;5071564;28;19932;-70
2023/02/08 11:33:22;;;;;;;;;;;5.30;42.20;;;;;;5072405;28;20010;-71
2023/02/08 11:35:53;;;;;;;;;;;5.40;43.10;;;;;;5071522;28;20011;-70
2023/02/08 11:38:26;;;;;;;;;;;5.50;42.70;;;;;;5070299;28;19928;-70
2023/02/08 11:40:53;;;;;;;;;;;5.50;40.80;;;;;;5061645;28;19932;-70
2023/02/08 11:43:23;;;;;;;;;;;5.50;40.80;;;;;;5078465;28;19932;-71
2023/02/08 11:45:50;;;;;;;;;;;5.50;41.90;;;;;;5073884;28;19934;-69
2023/02/08 11:48:21;;;;;;;;;;;5.60;40.80;;;;;;5071647;28;19925;-71
2023/02/08 11:50:53;;;;;;;;;;;5.60;40.00;;;;;;5070400;28;19935;-71
2023/02/08 11:53:26;;;;;;;;;;;5.80;40.70;;;;;;5062545;28;19968;-71
2023/02/08 11:56:08;;;;;;;;;;;5.80;40.20;;;;;;5069711;28;19981;-70
2023/02/08 11:58:40;;;;;;;;;;;6.10;36.80;;;;;;5062151;28;19924;-71
2023/02/08 12:01:18;;;;;;;;;;;6.20;30.00;;;;;;5059997;28;19959;-71
2023/02/08 12:03:58;;;;;;;;;;;6.30;30.60;;;;;;5068590;28;20440;-72
2023/02/08 12:06:55;;;;;;;;;;;6.40;30.20;;;;;;5061576;28;19924;-72
2023/02/08 12:09:34;;;;;;;;;;;6.70;30.50;;;;;;5065781;28;19932;-72
2023/02/08 12:12:13;;;;;;;;;;;6.90;28.00;;;;;;5059563;28;19943;-71
2023/02/08 12:15:04;;;;;;;;;;;6.60;21.50;;;;;;5062109;28;19936;-71
2023/02/08 12:17:44;;;;;;;;;;;6.70;22.80;;;;;;5056313;28;19962;-71
2023/02/08 12:20:29;;;;;;;;;;;7.00;24.30;;;;;;5062886;28;19925;-73
2023/02/08 12:23:09;;;;;;;;;;;6.90;24.90;;;;;;5059936;28;19928;-72
2023/02/08 12:25:43;;;;;;;;;;;6.90;20.00;;;;;;5061877;28;19935;-70
2023/02/08 12:28:13;;;;;;;;;;;6.80;19.10;;;;;;5053977;28;19932;-73
2023/02/08 12:30:49;;;;;;;;;;;6.90;20.00;;;;;;5062432;28;19974;-74
2023/02/08 12:33:28;;;;;;;;;;;7.10;19.60;;;;;;5060685;28;19982;-72
2023/02/08 12:36:05;;;;;;;;;;;7.30;15.30;;;;;;5068387;28;19924;-73
2023/02/08 12:41:38;;;;;;;;;;;7.40;13.90;;;;;;5053126;28;19958;-72
2023/02/08 12:44:12;;;;;;;;;;;7.50;14.20;;;;;;5064238;28;20303;-73
2023/02/08 12:47:00;;;;;;;;;;;7.50;15.40;;;;;;5062616;28;19924;-71
2023/02/08 12:49:45;;;;;;;;;;;7.50;13.20;;;;;;5057804;28;20325;-74
2023/02/08 12:52:24;;;;;;;;;;;7.40;13.00;;;;;;5063774;28;19986;-71
2023/02/08 12:54:53;;;;;;;;;;;7.40;14.00;;;;;;5066388;28;19967;-72
2023/02/08 12:57:21;;;;;;;;;;;7.50;12.50;;;;;;5059370;28;19931;-72
2023/02/08 12:59:49;;;;;;;;;;;7.30;12.60;;;;;;5067576;28;20311;-71
2023/02/08 13:02:18;;;;;;;;;;;7.40;12.80;;;;;;5066368;28;20310;-71
2023/02/08 13:04:48;;;;;;;;;;;7.30;12.00;;;;;;5063788;28;20032;-71
2023/02/08 13:07:18;;;;;;;;;;;7.40;12.10;;;;;;5063756;28;20027;-71
2023/02/08 13:09:48;;;;;;;;;;;7.40;13.10;;;;;;5066976;28;19932;-71
2023/02/08 13:12:16;;;;;;;;;;;7.10;12.50;;;;;;5061761;28;19956;-71
2023/02/08 13:14:45;;;;;;;;;;;7.20;14.50;;;;;;5069597;28;20034;-71
2023/02/08 13:17:15;;;;;;;;;;;7.10;14.90;;;;;;5065739;28;19971;-71
2023/02/08 13:19:48;;;;;;;;;;;7.40;13.50;;;;;;5063886;28;19935;-72
2023/02/08 13:22:16;;;;;;;;;;;7.50;12.60;;;;;;5060381;28;20019;-71
2023/02/08 13:24:44;;;;;;;;;;;7.40;14.50;;;;;;5062494;28;19931;-71
2023/02/08 13:27:15;;;;;;;;;;;7.20;14.40;;;;;;5058993;28;20015;-71
2023/02/08 13:29:45;;;;;;;;;;;7.30;14.70;;;;;;5063573;28;19928;-71
2023/02/08 13:32:15;;;;;;;;;;;7.50;13.10;;;;;;5063639;28;19928;-71
2023/02/08 13:34:44;;;;;;;;;;;7.60;11.10;;;;;;5068521;28;20018;-73
2023/02/08 13:37:20;;;;;;;;;;;7.60;11.70;;;;;;5061938;28;20011;-71
2023/02/08 13:39:47;;;;;;;;;;;7.80;11.50;;;;;;5061482;28;19968;-71
2023/02/08 13:42:19;;;;;;;;;;;7.80;10.70;;;;;;5060494;28;20059;-73
2023/02/08 13:44:49;;;;;;;;;;;7.60;12.30;;;;;;5063249;28;20025;-70
2023/02/08 13:47:22;;;;;;;;;;;7.30;12.60;;;;;;5063784;28;20454;-71
2023/02/08 13:49:54;;;;;;;;;;;7.10;12.30;;;;;;5060157;28;19925;-71
2023/02/08 13:52:44;;;;;;;;;;;7.20;13.40;;;;;;5063076;28;20306;-69
2023/02/08 13:55:30;;;;;;;;;;;7.10;10.90;;;;;;5046379;28;19924;-70
2023/02/08 13:57:59;;;;;;;;;;;7.20;12.10;;;;;;5063847;28;20369;-70
2023/02/08 14:00:27;;;;;;;;;;;7.20;13.00;;;;;;5069076;28;19924;-70
2023/02/08 14:03:00;;;;;;;;;;;7.20;11.90;;;;;;5062129;28;20332;-70
2023/02/08 14:05:48;;;;;;;;;;;7.20;12.40;;;;;;5065161;28;19928;-70
2023/02/08 14:08:19;;;;;;;;;;;7.40;12.40;;;;;;5054009;28;19925;-70
2023/02/08 14:10:51;;;;;;;;;;;7.30;12.00;;;;;;5067479;28;20007;-70
2023/02/08 14:13:23;;;;;;;;;;;7.40;11.40;;;;;;5068166;28;20032;-70
2023/02/08 14:16:12;;;;;;;;;;;7.50;11.90;;;;;;5062127;28;19955;-70
2023/02/08 14:18:42;;;;;;;;;;;7.40;12.40;;;;;;5061377;28;19978;-76
2023/02/08 14:21:22;;;;;;;;;;;7.40;12.80;;;;;;5062158;28;20015;-71
2023/02/08 14:23:58;;;;;;;;;;;7.40;13.20;;;;;;5058015;28;19931;-71
2023/02/08 14:26:26;;;;;;;;;;;7.20;13.10;;;;;;5062753;28;19947;-70
2023/02/08 14:28:56;;;;;;;;;;;7.20;13.20;;;;;;5065650;28;20472;-72
2023/02/08 14:31:35;;;;;;;;;;;7.20;12.70;;;;;;5057026;28;19952;-71
2023/02/08 14:34:02;;;;;;;;;;;7.20;13.20;;;;;;5059825;28;20390;-71
2023/02/08 14:36:30;;;;;;;;;;;7.20;13.20;;;;;;5060905;28;20003;-71